Time;durP1;ratioP1;P1;durP2;ratioP2;P2;SDS_P1;SDS_P2;PMS_P1;PMS_P2;Temp;Humidity;BMP_temperature;BMP_pressure;BME280_temperature;BME280_humidity;BME280_pressure;Samples;Min_cycle;Max_cycle;Signal;HPM_P1;HPM_P2
2021/10/03 00:02:11;;;;;;;5.78;0.90;;;15.80;85.80;;;;;;5013824;28;20057;-90
2021/10/03 00:04:41;;;;;;;6.35;1.13;;;15.70;85.80;;;;;;5013470;28;20042;-93
2021/10/03 00:07:10;;;;;;;9.40;1.75;;;15.70;85.90;;;;;;5014704;28;20124;-93
2021/10/03 00:09:37;;;;;;;6.25;0.90;;;15.60;85.90;;;;;;5018681;28;20041;-92
2021/10/03 00:12:05;;;;;;;4.68;0.88;;;15.70;85.90;;;;;;5014407;28;20463;-94
2021/10/03 00:14:32;;;;;;;6.40;0.85;;;15.60;85.90;;;;;;4998163;28;20045;-92
2021/10/03 00:16:59;;;;;;;5.88;0.90;;;15.60;85.90;;;;;;5009534;28;20049;-92
2021/10/03 00:19:28;;;;;;;5.43;0.85;;;15.70;86.00;;;;;;5013517;28;20133;-92
2021/10/03 00:21:56;;;;;;;6.63;0.98;;;15.60;86.00;;;;;;5013611;28;20060;-93
2021/10/03 00:24:24;;;;;;;3.40;1.00;;;15.60;86.00;;;;;;5013087;28;20100;-93
2021/10/03 00:26:50;;;;;;;8.45;1.15;;;15.60;86.00;;;;;;5012962;28;20056;-93
2021/10/03 00:29:18;;;;;;;8.45;0.98;;;15.50;86.00;;;;;;5012719;28;20112;-91
2021/10/03 00:31:45;;;;;;;4.57;0.85;;;15.60;86.00;;;;;;5012058;28;20470;-91
2021/10/03 00:34:12;;;;;;;4.78;1.10;;;15.50;85.90;;;;;;5011963;28;20042;-92
2021/10/03 00:36:38;;;;;;;7.65;1.10;;;15.50;85.90;;;;;;5012364;28;20050;-92
2021/10/03 00:39:06;;;;;;;6.10;0.88;;;15.40;85.90;;;;;;5013323;28;20499;-92
2021/10/03 00:41:33;;;;;;;4.57;1.17;;;15.50;85.90;;;;;;5013196;28;20050;-93
2021/10/03 00:44:00;;;;;;;4.13;0.90;;;15.40;85.90;;;;;;5008589;28;20466;-93
2021/10/03 00:46:27;;;;;;;5.25;0.90;;;15.40;85.90;;;;;;5012578;28;20054;-92
2021/10/03 00:48:54;;;;;;;6.40;0.90;;;15.40;85.80;;;;;;5011927;28;20038;-93
2021/10/03 00:51:22;;;;;;;4.20;0.68;;;15.40;85.80;;;;;;5012537;28;20053;-93
2021/10/03 00:53:48;;;;;;;4.70;1.20;;;15.40;85.80;;;;;;5011921;28;20474;-92
2021/10/03 00:56:16;;;;;;;3.40;0.75;;;15.40;85.80;;;;;;5012497;28;20092;-92
2021/10/03 00:58:45;;;;;;;4.05;0.75;;;15.40;85.80;;;;;;4995570;28;20053;-94
2021/10/03 01:01:12;;;;;;;10.38;0.90;;;15.40;85.80;;;;;;5012137;28;20049;-96
2021/10/03 01:03:42;;;;;;;4.20;0.70;;;15.40;85.80;;;;;;5014439;28;20068;-93
2021/10/03 01:06:10;;;;;;;6.03;0.98;;;15.40;85.70;;;;;;5013305;28;20058;-94
2021/10/03 01:08:37;;;;;;;1.25;0.65;;;15.40;85.70;;;;;;5013807;28;20172;-95
2021/10/03 01:11:04;;;;;;;3.70;0.73;;;15.30;85.60;;;;;;5014640;28;20046;-95
2021/10/03 01:13:31;;;;;;;4.90;1.02;;;15.30;85.50;;;;;;5005840;28;20534;-94
2021/10/03 01:15:59;;;;;;;4.32;0.70;;;15.30;85.30;;;;;;5012761;28;20077;-92
2021/10/03 01:18:26;;;;;;;4.22;0.80;;;15.30;85.30;;;;;;5013781;28;20073;-92
2021/10/03 01:20:53;;;;;;;5.57;0.95;;;15.20;85.30;;;;;;5015270;28;20453;-95
2021/10/03 01:23:20;;;;;;;4.22;0.68;;;15.20;85.20;;;;;;5012414;28;20046;-93
2021/10/03 01:25:49;;;;;;;4.82;0.95;;;15.20;85.10;;;;;;5007424;28;20069;-93
2021/10/03 01:28:18;;;;;;;4.55;0.98;;;15.10;85.10;;;;;;5012207;28;20490;-92
2021/10/03 01:30:49;;;;;;;3.67;0.80;;;15.10;85.00;;;;;;5012871;28;20042;-94
2021/10/03 01:33:17;;;;;;;2.72;0.65;;;15.00;85.00;;;;;;5012012;28;20041;-92
2021/10/03 01:35:45;;;;;;;6.00;1.30;;;15.00;84.90;;;;;;5012763;28;20388;-94
2021/10/03 01:38:15;;;;;;;4.03;0.90;;;14.90;84.80;;;;;;5011896;28;20054;-94
2021/10/03 01:40:43;;;;;;;4.25;0.88;;;14.90;84.80;;;;;;5012181;28;20561;-94
2021/10/03 01:43:11;;;;;;;3.25;0.70;;;14.90;84.80;;;;;;5011830;28;20077;-95
2021/10/03 01:45:38;;;;;;;5.93;0.75;;;14.90;84.80;;;;;;5010461;28;20107;-94
2021/10/03 01:48:07;;;;;;;8.00;1.00;;;14.80;84.80;;;;;;5012776;28;20096;-91
2021/10/03 01:50:38;;;;;;;4.70;0.80;;;14.80;84.70;;;;;;5013405;28;20045;-93
2021/10/03 01:53:07;;;;;;;4.00;0.60;;;14.80;84.70;;;;;;5012662;28;20453;-94
2021/10/03 01:55:35;;;;;;;8.98;0.90;;;14.80;84.70;;;;;;5012716;28;20465;-94
2021/10/03 01:58:03;;;;;;;4.13;0.80;;;14.70;84.70;;;;;;5011514;28;20042;-92
2021/10/03 02:00:30;;;;;;;2.80;0.77;;;14.70;84.70;;;;;;5011477;28;20050;-92
2021/10/03 02:03:00;;;;;;;5.93;0.70;;;14.60;84.70;;;;;;5011571;28;20038;-93
2021/10/03 02:05:32;;;;;;;3.70;0.60;;;14.60;84.70;;;;;;5012295;28;20046;-93
2021/10/03 02:07:59;;;;;;;3.15;0.80;;;14.60;84.70;;;;;;4992614;28;20454;-93
2021/10/03 02:10:26;;;;;;;3.22;0.70;;;14.60;84.70;;;;;;5011897;28;20046;-94
2021/10/03 02:12:53;;;;;;;2.03;0.55;;;14.60;84.70;;;;;;5011229;28;20116;-92
2021/10/03 02:15:21;;;;;;;5.35;0.80;;;14.60;84.70;;;;;;5012564;28;20045;-93
2021/10/03 02:17:48;;;;;;;3.63;0.73;;;14.60;84.70;;;;;;5012722;28;20042;-93
2021/10/03 02:20:17;;;;;;;2.20;0.70;;;14.60;84.70;;;;;;5012291;28;20046;-93
2021/10/03 02:22:44;;;;;;;2.75;0.70;;;14.60;84.70;;;;;;5010488;28;20103;-93
2021/10/03 02:25:12;;;;;;;2.42;0.70;;;14.50;84.70;;;;;;5014712;28;20096;-93
2021/10/03 02:27:38;;;;;;;1.23;0.50;;;14.50;84.70;;;;;;5015431;28;20100;-93
2021/10/03 02:30:07;;;;;;;4.75;0.80;;;14.50;84.70;;;;;;5014831;28;20483;-94
2021/10/03 02:32:35;;;;;;;4.55;0.68;;;14.50;84.70;;;;;;5015085;28;20042;-91
2021/10/03 02:35:04;;;;;;;5.10;0.90;;;14.50;84.70;;;;;;5014661;28;20050;-92
2021/10/03 02:37:31;;;;;;;2.60;0.60;;;14.40;84.80;;;;;;5014147;28;20050;-94
2021/10/03 02:39:58;;;;;;;9.93;1.00;;;14.40;84.80;;;;;;5013883;28;20107;-93
2021/10/03 02:42:26;;;;;;;3.28;0.63;;;14.40;84.80;;;;;;5013613;28;20120;-94
2021/10/03 02:44:53;;;;;;;2.20;0.68;;;14.40;84.80;;;;;;5013823;28;20255;-92
2021/10/03 02:47:20;;;;;;;2.78;0.77;;;14.40;84.90;;;;;;5013812;28;20061;-91
2021/10/03 02:49:47;;;;;;;5.60;0.55;;;14.50;84.90;;;;;;5014415;28;20470;-91
2021/10/03 02:52:14;;;;;;;3.13;0.63;;;14.40;85.00;;;;;;5013415;28;20041;-91
2021/10/03 02:54:41;;;;;;;1.70;0.60;;;14.40;85.00;;;;;;5013773;28;20064;-93
2021/10/03 02:57:09;;;;;;;5.78;1.00;;;14.40;85.10;;;;;;5013389;28;20107;-90
2021/10/03 02:59:36;;;;;;;2.38;0.70;;;14.40;85.10;;;;;;5013572;28;20046;-92
2021/10/03 03:02:04;;;;;;;3.28;0.75;;;14.50;85.10;;;;;;5013917;28;20057;-91
2021/10/03 03:04:31;;;;;;;3.25;0.88;;;14.50;85.10;;;;;;5013541;28;20050;-90
2021/10/03 03:06:58;;;;;;;3.65;0.70;;;14.40;85.10;;;;;;4995756;28;20050;-92
2021/10/03 03:09:26;;;;;;;4.05;0.70;;;14.40;85.10;;;;;;4995745;28;20462;-90
2021/10/03 03:11:52;;;;;;;5.10;0.75;;;14.50;85.10;;;;;;5012711;28;20096;-93
2021/10/03 03:14:20;;;;;;;4.90;0.85;;;14.40;85.10;;;;;;5013075;28;20049;-93
2021/10/03 03:16:49;;;;;;;3.22;0.75;;;14.40;85.00;;;;;;5013735;28;20050;-90
2021/10/03 03:19:17;;;;;;;3.80;0.82;;;14.40;84.90;;;;;;5012789;28;20096;-91
2021/10/03 03:21:45;;;;;;;3.70;0.60;;;14.40;84.90;;;;;;5012817;28;20092;-91
2021/10/03 03:24:13;;;;;;;2.78;0.77;;;14.40;84.90;;;;;;5012731;28;20050;-90
2021/10/03 03:26:40;;;;;;;8.13;0.85;;;14.30;85.00;;;;;;5012532;28;20096;-91
2021/10/03 03:29:07;;;;;;;5.35;0.90;;;14.30;85.00;;;;;;5013071;28;20053;-91
2021/10/03 03:31:34;;;;;;;5.80;0.90;;;14.30;85.00;;;;;;5012784;28;20101;-90
2021/10/03 03:34:01;;;;;;;5.47;0.82;;;14.30;84.90;;;;;;5012561;28;20065;-91
2021/10/03 03:36:28;;;;;;;5.25;1.00;;;14.30;84.90;;;;;;5011834;28;20104;-90
2021/10/03 03:38:54;;;;;;;6.15;0.90;;;14.40;84.90;;;;;;5012547;28;20054;-91
2021/10/03 03:41:22;;;;;;;7.75;1.10;;;14.30;84.90;;;;;;5012163;28;20053;-91
2021/10/03 03:43:50;;;;;;;3.88;0.82;;;14.30;84.80;;;;;;5012844;28;20054;-90
2021/10/03 03:46:16;;;;;;;3.85;0.90;;;14.30;84.70;;;;;;5012240;28;20557;-90
2021/10/03 03:48:43;;;;;;;5.32;1.00;;;14.30;84.70;;;;;;5012193;28;20045;-89
2021/10/03 03:51:10;;;;;;;3.75;0.90;;;14.30;84.60;;;;;;5012171;28;20050;-89
2021/10/03 03:53:37;;;;;;;2.90;0.80;;;14.30;84.60;;;;;;5011922;28;20061;-89
2021/10/03 03:56:05;;;;;;;4.22;0.80;;;14.20;84.50;;;;;;5012551;28;20053;-90
2021/10/03 03:58:32;;;;;;;2.75;0.50;;;14.20;84.30;;;;;;5012120;28;20101;-90
2021/10/03 04:00:59;;;;;;;6.95;0.88;;;14.10;84.20;;;;;;5011965;28;20104;-91
2021/10/03 04:03:26;;;;;;;2.70;0.50;;;14.00;84.20;;;;;;5011997;28;20522;-90
2021/10/03 04:05:53;;;;;;;1.67;0.50;;;14.00;84.10;;;;;;5010933;28;20038;-92
2021/10/03 04:08:23;;;;;;;4.13;0.57;;;14.00;84.20;;;;;;5011720;28;20119;-91
2021/10/03 04:10:52;;;;;;;3.30;0.80;;;13.90;84.30;;;;;;5012373;28;20054;-91
2021/10/03 04:13:20;;;;;;;3.35;0.65;;;13.90;84.30;;;;;;5011834;28;20111;-91
2021/10/03 04:15:47;;;;;;;1.35;0.43;;;13.90;84.30;;;;;;5012188;28;20054;-91
2021/10/03 04:18:14;;;;;;;1.50;0.60;;;13.90;84.30;;;;;;5012402;28;20046;-92
2021/10/03 04:20:41;;;;;;;2.35;0.65;;;13.90;84.30;;;;;;4995357;28;20079;-93
2021/10/03 04:23:08;;;;;;;3.35;1.02;;;13.90;84.30;;;;;;5012331;28;20466;-92
2021/10/03 04:25:35;;;;;;;2.33;0.50;;;13.90;84.30;;;;;;5005870;28;20056;-93
2021/10/03 04:28:02;;;;;;;3.60;0.82;;;13.90;84.30;;;;;;5012666;28;20466;-94
2021/10/03 04:30:29;;;;;;;0.80;0.22;;;13.90;84.20;;;;;;5012293;28;20041;-92
2021/10/03 04:32:56;;;;;;;2.60;0.70;;;13.90;84.10;;;;;;5011895;28;20069;-92
2021/10/03 04:35:23;;;;;;;2.25;0.43;;;13.90;84.10;;;;;;5012029;28;20050;-91
2021/10/03 04:37:50;;;;;;;2.10;0.60;;;13.90;84.10;;;;;;5011918;28;20061;-92
2021/10/03 04:40:17;;;;;;;3.50;0.60;;;13.90;84.00;;;;;;5011552;28;20541;-92
2021/10/03 04:42:45;;;;;;;3.97;0.65;;;14.00;84.00;;;;;;5011906;28;20046;-91
2021/10/03 04:45:12;;;;;;;1.70;0.50;;;13.90;83.90;;;;;;5011585;28;20077;-90
2021/10/03 04:47:39;;;;;;;1.85;0.65;;;13.90;83.90;;;;;;5011054;28;20069;-91
2021/10/03 04:50:06;;;;;;;3.75;0.60;;;13.90;83.80;;;;;;5011207;28;20057;-91
2021/10/03 04:52:33;;;;;;;2.03;0.60;;;13.90;83.80;;;;;;5011264;28;20050;-92
2021/10/03 04:55:00;;;;;;;1.73;0.40;;;13.90;83.80;;;;;;5011360;28;20446;-91
2021/10/03 04:57:27;;;;;;;2.50;0.55;;;13.90;83.70;;;;;;5011184;28;20049;-90
2021/10/03 04:59:54;;;;;;;4.60;0.55;;;13.90;83.60;;;;;;5011271;28;20050;-91
2021/10/03 05:02:21;;;;;;;3.33;0.60;;;13.90;83.60;;;;;;5011196;28;20104;-91
2021/10/03 05:04:48;;;;;;;2.88;0.70;;;13.90;83.60;;;;;;5011869;28;20137;-91
2021/10/03 05:07:14;;;;;;;1.90;0.40;;;13.90;83.50;;;;;;5010972;28;20100;-93
2021/10/03 05:09:41;;;;;;;1.85;0.50;;;13.90;83.50;;;;;;5011151;28;20046;-91
2021/10/03 05:12:09;;;;;;;6.13;0.82;;;13.90;83.50;;;;;;5010932;28;20045;-91
2021/10/03 05:14:36;;;;;;;2.55;0.82;;;13.90;83.40;;;;;;5011150;28;20601;-92
2021/10/03 05:17:03;;;;;;;3.38;0.80;;;13.90;83.30;;;;;;5011576;28;20049;-92
2021/10/03 05:19:30;;;;;;;3.00;0.88;;;13.90;83.20;;;;;;5011101;28;20137;-91
2021/10/03 05:21:57;;;;;;;6.07;0.80;;;13.90;83.20;;;;;;5010597;28;20557;-92
2021/10/03 05:24:24;;;;;;;5.43;0.90;;;13.80;83.20;;;;;;4993245;28;20092;-91
2021/10/03 05:26:51;;;;;;;4.15;0.90;;;13.80;83.30;;;;;;5010785;28;20042;-92
2021/10/03 05:29:18;;;;;;;3.72;0.88;;;13.80;83.30;;;;;;5010867;28;20115;-90
2021/10/03 05:31:44;;;;;;;2.72;0.63;;;13.80;83.40;;;;;;5011217;28;20066;-90
2021/10/03 05:34:11;;;;;;;2.70;0.63;;;13.80;83.30;;;;;;5010569;28;20042;-90
2021/10/03 05:36:38;;;;;;;9.48;1.17;;;13.80;83.30;;;;;;5010188;28;20049;-90
2021/10/03 05:39:05;;;;;;;4.43;0.80;;;13.80;83.30;;;;;;5010859;28;20080;-91
2021/10/03 05:41:32;;;;;;;3.05;0.68;;;13.80;83.30;;;;;;4995125;28;20169;-90
2021/10/03 05:43:59;;;;;;;3.08;0.80;;;13.80;83.40;;;;;;5011154;28;20638;-91
2021/10/03 05:46:26;;;;;;;4.75;0.77;;;13.80;83.40;;;;;;5010410;28;20546;-89
2021/10/03 05:48:53;;;;;;;2.53;0.80;;;13.80;83.40;;;;;;5010514;28;20042;-90
2021/10/03 05:51:20;;;;;;;4.18;0.75;;;13.80;83.40;;;;;;5010030;28;20115;-90
2021/10/03 05:53:47;;;;;;;5.43;0.82;;;13.80;83.30;;;;;;5010548;28;20046;-91
2021/10/03 05:56:13;;;;;;;1.77;0.60;;;13.80;83.30;;;;;;5010658;28;20462;-91
2021/10/03 05:58:40;;;;;;;4.15;0.77;;;13.80;83.30;;;;;;5010853;28;20057;-90
2021/10/03 06:01:07;;;;;;;1.70;0.50;;;13.80;83.20;;;;;;5013627;28;20092;-91
2021/10/03 06:03:35;;;;;;;3.08;0.68;;;13.80;83.20;;;;;;5014312;28;20050;-92
2021/10/03 06:06:02;;;;;;;3.78;0.88;;;13.80;83.20;;;;;;5014113;28;20046;-93
2021/10/03 06:08:29;;;;;;;1.90;0.38;;;13.80;83.20;;;;;;5014412;28;20147;-90
2021/10/03 06:10:56;;;;;;;5.13;0.95;;;13.80;83.20;;;;;;5014847;28;20050;-91
2021/10/03 06:13:23;;;;;;;2.33;0.60;;;13.80;83.20;;;;;;5014352;28;20465;-92
2021/10/03 06:15:50;;;;;;;2.03;0.60;;;13.70;83.20;;;;;;5014223;28;20049;-92
2021/10/03 06:18:17;;;;;;;3.95;0.65;;;13.80;83.20;;;;;;5014131;28;20045;-91
2021/10/03 06:20:44;;;;;;;2.05;0.50;;;13.80;83.20;;;;;;5013994;28;20046;-92
2021/10/03 06:23:11;;;;;;;5.25;0.70;;;13.70;83.20;;;;;;5014337;28;20404;-90
2021/10/03 06:25:37;;;;;;;3.13;0.70;;;13.70;83.20;;;;;;5014375;28;20714;-91
2021/10/03 06:28:05;;;;;;;1.58;0.60;;;13.70;83.20;;;;;;5014020;28;20045;-91
2021/10/03 06:30:32;;;;;;;3.03;0.52;;;13.70;83.20;;;;;;5013998;28;20108;-91
2021/10/03 06:33:00;;;;;;;7.95;0.75;;;13.70;83.20;;;;;;5013987;28;20042;-91
2021/10/03 06:35:28;;;;;;;3.83;0.98;;;13.70;83.20;;;;;;5013820;28;20096;-92
2021/10/03 06:37:56;;;;;;;4.50;1.08;;;13.80;83.20;;;;;;5014601;28;20522;-92
2021/10/03 06:40:24;;;;;;;3.45;1.40;;;13.70;83.20;;;;;;5014003;28;20065;-91
2021/10/03 06:42:51;;;;;;;3.10;1.23;;;13.70;83.20;;;;;;5013522;28;20046;-91
2021/10/03 06:45:18;;;;;;;5.72;1.90;;;13.70;83.20;;;;;;5013517;28;20096;-90
2021/10/03 06:47:45;;;;;;;3.90;1.77;;;13.70;83.30;;;;;;5013602;28;20053;-91
2021/10/03 06:50:12;;;;;;;3.25;1.23;;;13.70;83.30;;;;;;5013777;28;20042;-92
2021/10/03 06:52:39;;;;;;;4.18;1.42;;;13.70;83.40;;;;;;5013860;28;20384;-91
2021/10/03 06:55:07;;;;;;;13.98;7.78;;;13.70;83.40;;;;;;5013711;28;20050;-90
2021/10/03 06:57:33;;;;;;;16.80;7.80;;;13.70;83.50;;;;;;5016241;28;20050;-92
2021/10/03 07:00:02;;;;;;;13.15;6.55;;;13.70;83.60;;;;;;5014391;28;20042;-90
2021/10/03 07:02:30;;;;;;;11.43;5.13;;;13.70;83.60;;;;;;5013814;28;20116;-91
2021/10/03 07:04:57;;;;;;;6.75;3.25;;;13.70;83.60;;;;;;5014452;28;20046;-91
2021/10/03 07:07:24;;;;;;;10.40;5.32;;;13.70;83.60;;;;;;5013393;28;20092;-92
2021/10/03 07:09:51;;;;;;;4.57;2.17;;;13.70;83.60;;;;;;5013349;28;20050;-92
2021/10/03 07:12:18;;;;;;;4.93;2.28;;;13.70;83.60;;;;;;5012037;28;20115;-92
2021/10/03 07:14:45;;;;;;;4.25;2.10;;;13.70;83.60;;;;;;5013407;28;20096;-90
2021/10/03 07:17:13;;;;;;;3.40;1.60;;;13.60;83.60;;;;;;5010893;28;20104;-91
2021/10/03 07:19:40;;;;;;;5.30;1.95;;;13.70;83.70;;;;;;5014119;28;20529;-91
2021/10/03 07:22:08;;;;;;;4.65;1.70;;;13.70;83.70;;;;;;5013507;28;20042;-91
2021/10/03 07:24:36;;;;;;;4.03;1.75;;;13.70;83.70;;;;;;5014104;28;20052;-91
2021/10/03 07:27:04;;;;;;;8.60;2.00;;;13.70;83.70;;;;;;5013564;28;20045;-92
2021/10/03 07:29:33;;;;;;;3.20;1.42;;;13.70;83.70;;;;;;4998502;28;20101;-91
2021/10/03 07:32:01;;;;;;;9.02;1.90;;;13.70;83.70;;;;;;4994609;28;20392;-91
2021/10/03 07:34:29;;;;;;;5.10;1.95;;;13.70;83.80;;;;;;5013410;28;20050;-91
2021/10/03 07:36:56;;;;;;;4.90;1.70;;;13.70;83.80;;;;;;5013543;28;20454;-91
2021/10/03 07:39:24;;;;;;;4.75;1.80;;;13.70;83.70;;;;;;5013477;28;20418;-91
2021/10/03 07:41:51;;;;;;;4.22;1.70;;;13.70;83.70;;;;;;5013154;28;20042;-90
2021/10/03 07:44:18;;;;;;;4.07;1.90;;;13.70;83.70;;;;;;5013914;28;20049;-93
2021/10/03 07:46:46;;;;;;;3.85;1.60;;;13.70;83.80;;;;;;5013866;28;20061;-90
2021/10/03 07:49:14;;;;;;;5.07;1.67;;;13.70;83.90;;;;;;5013274;28;20494;-91
2021/10/03 07:51:40;;;;;;;4.15;1.85;;;13.70;83.90;;;;;;5014750;28;20077;-93
2021/10/03 07:54:08;;;;;;;5.50;2.22;;;13.70;84.00;;;;;;5013747;28;20046;-92
2021/10/03 07:56:40;;;;;;;4.93;1.90;;;13.70;84.00;;;;;;5013410;28;20046;-91
2021/10/03 07:59:07;;;;;;;3.88;1.80;;;13.70;84.10;;;;;;5013887;28;20081;-91
2021/10/03 08:01:33;;;;;;;5.82;1.40;;;13.70;84.10;;;;;;5013807;28;20473;-93
2021/10/03 08:04:02;;;;;;;3.60;1.27;;;13.70;84.10;;;;;;5013114;28;20108;-91
2021/10/03 08:06:29;;;;;;;2.78;1.08;;;13.70;84.20;;;;;;5013251;28;20042;-91
2021/10/03 08:08:56;;;;;;;3.78;1.25;;;13.70;84.20;;;;;;5013565;28;20112;-93
2021/10/03 08:11:23;;;;;;;4.32;1.20;;;13.70;84.20;;;;;;5012842;28;20470;-92
2021/10/03 08:13:50;;;;;;;4.80;1.10;;;13.60;84.20;;;;;;5013547;28;20058;-91
2021/10/03 08:16:21;;;;;;;6.30;1.30;;;13.60;84.30;;;;;;5012492;28;20050;-92
2021/10/03 08:18:48;;;;;;;3.60;1.00;;;13.60;84.30;;;;;;5012736;28;20112;-91
2021/10/03 08:21:16;;;;;;;5.13;1.05;;;13.60;84.30;;;;;;5012876;28;20077;-90
2021/10/03 08:23:44;;;;;;;2.53;0.80;;;13.60;84.30;;;;;;5012830;28;20097;-90
2021/10/03 08:26:12;;;;;;;2.90;0.90;;;13.60;84.30;;;;;;5012621;28;20399;-90
2021/10/03 08:28:41;;;;;;;3.28;0.82;;;13.50;84.30;;;;;;5013135;28;20104;-92
2021/10/03 08:31:09;;;;;;;2.97;0.77;;;13.50;84.30;;;;;;5012175;28;20511;-92
2021/10/03 08:33:36;;;;;;;4.07;1.10;;;13.50;84.40;;;;;;5012167;28;20129;-89
2021/10/03 08:36:04;;;;;;;3.05;0.88;;;13.50;84.40;;;;;;5012700;28;20093;-90
2021/10/03 08:38:32;;;;;;;3.47;0.88;;;13.50;84.40;;;;;;5012663;28;20450;-91
2021/10/03 08:41:01;;;;;;;3.40;1.05;;;13.50;84.40;;;;;;5012463;28;20069;-90
2021/10/03 08:43:29;;;;;;;3.72;0.85;;;13.50;84.40;;;;;;5012173;28;20054;-90
2021/10/03 08:46:05;;;;;;;2.53;0.80;;;13.50;84.40;;;;;;5012602;28;20108;-92
2021/10/03 08:48:32;;;;;;;3.67;1.05;;;13.50;84.40;;;;;;5012390;28;20060;-91
2021/10/03 08:50:59;;;;;;;2.72;0.95;;;13.60;84.40;;;;;;5012689;28;20049;-93
2021/10/03 08:53:26;;;;;;;3.10;0.80;;;13.60;84.50;;;;;;5012417;28;20838;-90
2021/10/03 08:55:56;;;;;;;2.40;0.75;;;13.60;84.50;;;;;;5012679;28;20050;-91
2021/10/03 08:58:24;;;;;;;3.60;0.90;;;13.60;84.50;;;;;;5011903;28;20045;-91
2021/10/03 09:00:52;;;;;;;4.25;0.80;;;13.60;84.50;;;;;;5012313;28;20096;-92
2021/10/03 09:03:19;;;;;;;2.83;0.68;;;13.60;84.50;;;;;;5012115;28;20041;-92
2021/10/03 09:05:50;;;;;;;4.93;0.77;;;13.70;84.50;;;;;;5012142;28;20042;-88
2021/10/03 09:08:18;;;;;;;2.22;0.68;;;13.70;84.50;;;;;;5011992;28;20053;-88
2021/10/03 09:10:57;;;;;;;3.78;1.08;;;13.70;84.50;;;;;;5010433;28;20088;-89
2021/10/03 09:13:30;;;;;;;2.22;0.70;;;13.70;84.50;;;;;;5011618;28;20058;-88
2021/10/03 09:16:11;;;;;;;3.80;0.95;;;13.70;84.50;;;;;;4990433;28;20042;-89
2021/10/03 09:19:13;;;;;;;5.38;1.05;;;13.70;84.50;;;;;;5012357;28;20050;-89
2021/10/03 09:21:43;;;;;;;1.90;0.70;;;13.70;84.50;;;;;;5011158;28;20049;-88
2021/10/03 09:24:14;;;;;;;4.32;1.10;;;13.70;84.40;;;;;;5020762;28;20092;-91
2021/10/03 09:27:03;;;;;;;1.60;0.50;;;13.70;84.20;;;;;;4993671;28;20046;-89
2021/10/03 09:29:33;;;;;;;3.13;0.88;;;13.60;84.20;;;;;;4992794;28;20042;-89
2021/10/03 09:32:17;;;;;;;2.85;0.70;;;13.60;84.20;;;;;;4992385;28;20097;-92
2021/10/03 09:34:47;;;;;;;2.63;0.80;;;13.60;84.20;;;;;;4996441;28;20124;-91
2021/10/03 09:37:19;;;;;;;4.03;0.65;;;13.60;84.20;;;;;;5002481;28;20053;-90
2021/10/03 09:39:50;;;;;;;3.45;0.50;;;13.50;84.10;;;;;;5002230;28;20046;-90
2021/10/03 09:42:19;;;;;;;2.22;0.90;;;13.50;84.10;;;;;;4996127;28;20072;-90
2021/10/03 09:45:05;;;;;;;1.33;0.65;;;13.40;84.10;;;;;;4994185;28;20050;-89
2021/10/03 09:47:31;;;;;;;2.28;0.80;;;13.50;84.10;;;;;;5008047;28;20041;-88
2021/10/03 09:49:59;;;;;;;2.22;0.65;;;13.40;84.10;;;;;;4996835;28;20494;-88
2021/10/03 09:52:26;;;;;;;5.57;0.70;;;13.40;84.10;;;;;;4996393;28;20054;-88
2021/10/03 09:54:54;;;;;;;2.05;0.60;;;13.40;84.10;;;;;;4996455;28;20050;-88
2021/10/03 09:57:21;;;;;;;2.55;0.90;;;13.40;84.00;;;;;;4996444;28;20104;-88
2021/10/03 09:59:49;;;;;;;1.25;0.57;;;13.30;83.90;;;;;;4994381;28;20053;-89
2021/10/03 10:02:18;;;;;;;2.75;0.75;;;13.30;83.90;;;;;;4993824;28;20094;-89
2021/10/03 10:04:45;;;;;;;1.80;0.68;;;13.30;83.90;;;;;;4996608;28;20415;-89
2021/10/03 10:07:12;;;;;;;2.15;0.70;;;13.20;83.90;;;;;;4996631;28;20533;-88
2021/10/03 10:09:40;;;;;;;2.53;0.60;;;13.20;84.00;;;;;;4996616;28;20104;-91
2021/10/03 10:12:11;;;;;;;2.58;0.80;;;13.20;84.00;;;;;;5007138;28;20096;-90
2021/10/03 10:14:40;;;;;;;2.67;0.70;;;13.20;84.00;;;;;;4993186;28;20050;-89
2021/10/03 10:17:29;;;;;;;1.92;0.60;;;13.20;84.10;;;;;;4994641;28;20125;-89
2021/10/03 10:20:01;;;;;;;2.33;0.77;;;13.20;84.10;;;;;;4995379;28;20104;-89
2021/10/03 10:22:29;;;;;;;5.78;0.80;;;13.20;84.10;;;;;;5004653;28;20462;-89
2021/10/03 10:25:00;;;;;;;2.35;0.90;;;13.20;84.20;;;;;;5000438;28;20054;-89
2021/10/03 10:27:30;;;;;;;1.85;0.80;;;13.20;84.20;;;;;;4994826;28;20058;-89
2021/10/03 10:29:59;;;;;;;2.38;0.75;;;13.20;84.20;;;;;;4995299;28;20209;-89
2021/10/03 10:32:27;;;;;;;1.50;0.70;;;13.20;84.20;;;;;;4992262;28;20046;-88
2021/10/03 10:35:09;;;;;;;2.20;0.80;;;13.20;84.30;;;;;;4996540;28;20496;-90
2021/10/03 10:37:52;;;;;;;7.55;1.08;;;13.20;84.30;;;;;;4998279;28;20408;-90
2021/10/03 10:40:22;;;;;;;3.35;0.93;;;13.20;84.30;;;;;;4995893;28;20101;-90
2021/10/03 10:42:52;;;;;;;1.88;0.75;;;13.20;84.30;;;;;;4999519;28;20104;-90
2021/10/03 10:45:44;;;;;;;4.28;0.90;;;13.20;84.30;;;;;;5005550;28;20100;-90
2021/10/03 10:48:11;;;;;;;4.53;0.80;;;13.20;84.40;;;;;;5000573;28;20042;-89
2021/10/03 10:50:43;;;;;;;6.55;0.98;;;13.20;84.40;;;;;;4993278;28;20104;-89
2021/10/03 10:53:27;;;;;;;3.45;0.70;;;13.20;84.40;;;;;;5010623;28;20057;-91
2021/10/03 10:56:10;;;;;;;1.88;0.85;;;13.20;84.40;;;;;;5015403;28;20054;-91
2021/10/03 10:59:02;;;;;;;1.33;0.57;;;13.30;84.50;;;;;;5006751;28;20046;-94
2021/10/03 11:01:35;;;;;;;3.80;0.85;;;13.30;84.50;;;;;;4995774;28;20054;-91
2021/10/03 11:04:23;;;;;;;3.03;1.23;;;13.30;84.50;;;;;;4997510;28;20058;-93
2021/10/03 11:06:52;;;;;;;3.63;0.90;;;13.30;84.50;;;;;;4999525;28;20050;-90
2021/10/03 11:09:19;;;;;;;1.55;0.50;;;13.30;84.30;;;;;;4998450;28;20046;-92
2021/10/03 11:11:52;;;;;;;3.35;0.88;;;13.30;84.30;;;;;;5010449;28;20120;-92
2021/10/03 11:14:22;;;;;;;2.20;0.80;;;13.30;84.30;;;;;;4997528;28;20050;-93
2021/10/03 11:16:51;;;;;;;1.60;0.60;;;13.30;84.30;;;;;;4994558;28;20046;-93
2021/10/03 11:19:22;;;;;;;3.70;0.85;;;13.30;84.40;;;;;;5017700;28;20049;-93
2021/10/03 11:21:53;;;;;;;3.17;0.80;;;13.30;84.50;;;;;;5005150;28;20093;-91
2021/10/03 11:24:24;;;;;;;2.20;0.70;;;13.30;84.40;;;;;;4996329;28;20447;-90
2021/10/03 11:26:57;;;;;;;1.83;0.57;;;13.30;84.40;;;;;;5008274;28;20392;-91
2021/10/03 11:29:26;;;;;;;3.30;0.90;;;13.30;84.40;;;;;;5009938;28;20049;-90
2021/10/03 11:31:56;;;;;;;4.82;0.90;;;13.40;84.50;;;;;;4999221;28;20054;-92
2021/10/03 11:34:38;;;;;;;12.02;0.88;;;13.40;84.50;;;;;;5006529;28;20042;-91
2021/10/03 11:37:08;;;;;;;4.85;0.80;;;13.30;84.50;;;;;;5003355;28;20054;-91
2021/10/03 11:39:56;;;;;;;4.70;0.70;;;13.40;84.50;;;;;;4999782;28;20042;-92
2021/10/03 11:42:36;;;;;;;3.53;0.70;;;13.40;84.50;;;;;;5007618;28;20100;-92
2021/10/03 11:45:23;;;;;;;7.32;2.20;;;13.30;84.40;;;;;;4995614;28;20102;-91
2021/10/03 11:47:54;;;;;;;4.63;1.55;;;13.40;84.30;;;;;;4996168;28;20112;-91
2021/10/03 11:50:27;;;;;;;5.28;1.80;;;13.40;84.40;;;;;;5011037;28;20049;-88
2021/10/03 11:53:16;;;;;;;3.13;1.38;;;13.40;84.50;;;;;;5008967;28;20124;-91
2021/10/03 11:55:45;;;;;;;2.63;0.98;;;13.50;84.60;;;;;;5004660;28;20050;-89
2021/10/03 11:58:16;;;;;;;4.50;0.90;;;13.50;84.60;;;;;;4998065;28;20092;-89
2021/10/03 12:00:57;;;;;;;2.47;0.88;;;13.50;84.50;;;;;;4998087;28;20053;-93
2021/10/03 12:03:26;;;;;;;4.18;0.80;;;13.60;84.30;;;;;;4998932;28;20407;-91
2021/10/03 12:05:54;;;;;;;4.95;1.60;;;13.60;84.10;;;;;;4998715;28;20460;-93
2021/10/03 12:08:22;;;;;;;4.28;0.88;;;13.60;83.90;;;;;;4997133;28;20459;-92
2021/10/03 12:10:54;;;;;;;3.47;1.10;;;13.60;83.60;;;;;;5014945;28;20057;-94
2021/10/03 12:13:26;;;;;;;3.05;1.15;;;13.60;83.40;;;;;;4995453;28;20050;-93
2021/10/03 12:16:05;;;;;;;2.88;0.82;;;13.60;83.50;;;;;;5001459;28;20049;-94
2021/10/03 12:18:41;;;;;;;3.58;1.20;;;13.70;83.60;;;;;;5003993;28;20815;-93
2021/10/03 12:21:25;;;;;;;6.07;0.93;;;13.70;83.70;;;;;;4995982;28;20050;-92
2021/10/03 12:23:58;;;;;;;4.03;1.00;;;13.80;83.50;;;;;;5000937;28;20049;-93
2021/10/03 12:26:25;;;;;;;2.47;0.90;;;13.80;83.10;;;;;;5011598;28;20325;-94
2021/10/03 12:29:07;;;;;;;10.75;4.75;;;13.80;83.00;;;;;;4994833;28;20054;-92
2021/10/03 12:31:45;;;;;;;4.90;1.90;;;13.80;83.10;;;;;;4994930;28;20046;-93
2021/10/03 12:34:15;;;;;;;8.52;3.67;;;13.90;83.10;;;;;;4995776;28;20129;-93
2021/10/03 12:37:14;;;;;;;5.63;1.65;;;13.90;82.90;;;;;;5001322;28;20077;-93
2021/10/03 12:39:51;;;;;;;6.00;1.30;;;13.90;83.10;;;;;;5006232;28;20391;-92
2021/10/03 12:42:21;;;;;;;5.20;1.25;;;13.90;83.00;;;;;;5009388;28;20050;-93
2021/10/03 12:44:50;;;;;;;2.92;1.10;;;13.90;83.10;;;;;;5013595;28;20054;-94
2021/10/03 12:47:17;;;;;;;3.35;1.20;;;13.90;83.10;;;;;;5013888;28;20046;-92
2021/10/03 12:49:44;;;;;;;2.53;1.00;;;13.90;83.20;;;;;;5014118;28;20045;-93
2021/10/03 12:52:13;;;;;;;2.55;0.77;;;13.90;83.10;;;;;;4996053;28;20047;-94
2021/10/03 12:54:42;;;;;;;2.00;0.80;;;13.90;82.80;;;;;;5002918;28;20049;-93
2021/10/03 12:57:12;;;;;;;3.88;1.30;;;14.00;82.60;;;;;;5006536;28;20046;-92